createdAt,value
2022-11-28T00:00:27.538Z,22.37
2022-11-28T00:02:58.148Z,22.33
2022-11-28T00:05:28.498Z,22.34
2022-11-28T00:07:59.032Z,22.33
2022-11-28T00:10:29.519Z,22.33
2022-11-28T00:12:59.812Z,22.31
2022-11-28T00:15:30.118Z,22.30
2022-11-28T00:18:00.559Z,22.25
2022-11-28T00:20:33.081Z,22.24
2022-11-28T00:23:03.445Z,22.24
2022-11-28T00:25:33.029Z,22.22
2022-11-28T00:28:03.163Z,22.24
2022-11-28T00:30:33.512Z,22.18
2022-11-28T00:33:03.644Z,22.14
2022-11-28T00:35:33.493Z,22.16
2022-11-28T00:38:03.444Z,22.10
2022-11-28T00:40:33.766Z,22.08
2022-11-28T00:43:03.280Z,22.10
2022-11-28T00:45:33.378Z,22.01
2022-11-28T00:48:03.753Z,22.00
2022-11-28T00:50:34.049Z,22.01
2022-11-28T00:53:04.414Z,21.93
2022-11-28T00:55:34.741Z,21.93
2022-11-28T00:58:05.288Z,21.92
2022-11-28T01:00:35.712Z,21.89
2022-11-28T01:03:06.331Z,21.89
2022-11-28T01:05:43.549Z,21.86
2022-11-28T01:08:13.966Z,21.79
2022-11-28T01:10:46.824Z,21.79
2022-11-28T01:13:17.087Z,21.80
2022-11-28T01:15:47.501Z,21.73
2022-11-28T01:18:17.770Z,21.75
2022-11-28T01:20:48.780Z,21.73
2022-11-28T01:23:20.562Z,21.73
2022-11-28T01:25:50.794Z,21.72
2022-11-28T01:28:20.778Z,21.73
2022-11-28T01:30:50.821Z,21.67
2022-11-28T01:33:20.870Z,21.73
2022-11-28T01:35:58.665Z,21.70
2022-11-28T01:38:29.648Z,21.73
2022-11-28T01:41:00.182Z,21.67
2022-11-28T01:43:30.647Z,21.69
2022-11-28T01:46:01.209Z,21.67
2022-11-28T01:48:37.936Z,21.70
2022-11-28T01:51:11.263Z,21.70
2022-11-28T01:53:46.784Z,21.73
2022-11-28T01:56:24.635Z,21.73
2022-11-28T01:59:01.629Z,21.73
2022-11-28T02:01:32.569Z,21.75
2022-11-28T02:04:02.939Z,21.73
2022-11-28T02:06:34.572Z,21.73
2022-11-28T02:09:04.987Z,21.76
2022-11-28T02:12:05.725Z,21.82
2022-11-28T02:15:23.121Z,21.69
2022-11-28T02:18:04.931Z,21.53
2022-11-28T02:21:12.221Z,21.60
2022-11-28T02:23:57.746Z,21.62
2022-11-28T02:26:52.140Z,21.56
2022-11-28T02:29:31.146Z,21.52
2022-11-28T02:32:31.039Z,21.46
2022-11-28T02:35:33.723Z,21.31
2022-11-28T02:38:14.644Z,21.31
2022-11-28T02:40:51.004Z,21.14
2022-11-28T02:43:34.533Z,21.14
2022-11-28T02:46:27.235Z,21.16
2022-11-28T02:49:03.343Z,21.26
2022-11-28T02:51:39.728Z,21.31
2022-11-28T02:54:10.838Z,21.31
2022-11-28T02:56:48.054Z,21.31
2022-11-28T02:59:39.792Z,21.29
2022-11-28T03:02:30.085Z,21.06
2022-11-28T03:05:19.716Z,20.91
2022-11-28T03:08:20.494Z,21.08
2022-11-28T03:10:50.916Z,21.11
2022-11-28T03:13:48.605Z,21.14
2022-11-28T03:16:33.893Z,21.01
2022-11-28T03:19:23.880Z,21.05
2022-11-28T03:22:14.778Z,21.09
2022-11-28T03:24:50.329Z,21.02
2022-11-28T03:27:33.956Z,20.94
2022-11-28T03:30:21.055Z,20.88
2022-11-28T03:32:55.095Z,20.95
2022-11-28T03:35:31.608Z,20.98
2022-11-28T03:38:10.832Z,20.95
2022-11-28T03:40:48.583Z,20.88
2022-11-28T03:43:23.600Z,20.92
2022-11-28T03:45:57.595Z,20.94
2022-11-28T03:48:37.457Z,20.91
2022-11-28T03:51:30.532Z,20.88
2022-11-28T03:54:06.483Z,20.87
2022-11-28T03:56:49.987Z,20.83
2022-11-28T03:59:24.025Z,20.75
2022-11-28T04:02:03.436Z,20.70
2022-11-28T04:04:52.078Z,20.71
2022-11-28T04:07:44.595Z,20.80
2022-11-28T04:10:34.677Z,20.71
2022-11-28T04:13:21.799Z,20.70
2022-11-28T04:16:30.189Z,20.68
2022-11-28T04:19:15.306Z,20.68
2022-11-28T04:21:55.749Z,20.53
2022-11-28T04:24:54.933Z,20.48
2022-11-28T04:27:36.826Z,20.46
2022-11-28T04:30:08.869Z,20.43
2022-11-28T04:32:44.150Z,20.41
2022-11-28T04:35:42.474Z,20.37
2022-11-28T04:38:15.736Z,20.34
2022-11-28T04:40:56.651Z,20.30
2022-11-28T04:43:31.657Z,20.27
2022-11-28T04:46:08.930Z,20.22
2022-11-28T04:48:39.664Z,20.22
2022-11-28T04:51:25.241Z,20.20
2022-11-28T04:54:16.512Z,20.22
2022-11-28T04:57:00.045Z,20.16
2022-11-28T04:59:33.148Z,20.16
2022-11-28T05:02:07.684Z,20.13
2022-11-28T05:04:39.764Z,20.15
2022-11-28T05:07:10.499Z,20.12
2022-11-28T05:09:40.879Z,20.09
2022-11-28T05:12:11.223Z,20.13
2022-11-28T05:14:42.459Z,20.15
2022-11-28T05:17:15.193Z,20.10
2022-11-28T05:19:45.337Z,20.08
2022-11-28T05:22:15.597Z,20.12
2022-11-28T05:24:46.046Z,20.10
2022-11-28T05:27:16.720Z,20.12
2022-11-28T05:29:52.059Z,20.12
2022-11-28T05:32:22.640Z,20.12
2022-11-28T05:34:52.850Z,20.09
2022-11-28T05:37:22.633Z,20.05
2022-11-28T05:39:52.936Z,20.13
2022-11-28T05:42:23.419Z,20.20
2022-11-28T05:44:53.991Z,20.24
2022-11-28T05:47:25.318Z,20.33
2022-11-28T05:49:55.666Z,20.40
2022-11-28T05:52:25.878Z,20.41
2022-11-28T05:54:55.594Z,20.39
2022-11-28T05:57:25.588Z,20.39
2022-11-28T05:59:55.333Z,20.37
2022-11-28T06:02:25.327Z,20.37
2022-11-28T06:04:55.679Z,20.32
2022-11-28T06:07:25.805Z,20.29
2022-11-28T06:09:56.141Z,20.00
2022-11-28T06:12:25.934Z,19.92
2022-11-28T06:14:56.148Z,20.02
2022-11-28T06:17:26.289Z,20.09
2022-11-28T06:19:56.434Z,20.13
2022-11-28T06:22:26.687Z,20.16
2022-11-28T06:24:56.452Z,20.13
2022-11-28T06:27:26.595Z,20.13
2022-11-28T06:29:56.757Z,20.06
2022-11-28T06:32:26.869Z,19.85
2022-11-28T06:34:57.297Z,19.85
2022-11-28T06:37:27.562Z,19.89
2022-11-28T06:39:57.273Z,19.95
2022-11-28T06:42:27.188Z,19.99
2022-11-28T06:44:57.024Z,20.03
2022-11-28T06:47:27.041Z,20.05
2022-11-28T06:49:57.850Z,20.06
2022-11-28T06:52:28.047Z,20.06
2022-11-28T06:54:58.038Z,20.06
2022-11-28T06:57:28.581Z,20.03
2022-11-28T06:59:58.773Z,20.03
2022-11-28T07:02:29.292Z,20.05
2022-11-28T07:04:59.587Z,20.03
2022-11-28T07:07:29.791Z,20.08
2022-11-28T07:09:59.761Z,20.05
2022-11-28T07:12:29.683Z,20.05
2022-11-28T07:14:59.913Z,20.02
2022-11-28T07:17:30.152Z,19.96
2022-11-28T07:20:00.790Z,19.92
2022-11-28T07:22:31.017Z,19.85
2022-11-28T07:25:00.831Z,19.68
2022-11-28T07:27:30.800Z,19.48
2022-11-28T07:30:00.876Z,19.50
2022-11-28T07:32:30.617Z,19.61
2022-11-28T07:35:00.904Z,19.72
2022-11-28T07:37:31.131Z,19.79
2022-11-28T07:40:00.845Z,19.82
2022-11-28T07:42:30.763Z,19.78
2022-11-28T07:45:07.034Z,19.55
2022-11-28T07:47:37.237Z,19.62
2022-11-28T07:50:08.410Z,19.55
2022-11-28T07:52:38.658Z,19.59
2022-11-28T07:55:09.184Z,19.68
2022-11-28T07:57:39.393Z,19.75
2022-11-28T08:00:09.527Z,19.75
2022-11-28T08:02:41.875Z,19.72
2022-11-28T08:05:13.828Z,19.71
2022-11-28T08:07:44.157Z,19.74
2022-11-28T08:10:13.886Z,19.78
2022-11-28T08:12:44.173Z,19.74
2022-11-28T08:15:14.582Z,19.65
2022-11-28T08:17:44.805Z,19.66
2022-11-28T08:20:15.584Z,19.64
2022-11-28T08:22:45.882Z,19.61
2022-11-28T08:25:16.030Z,19.65
2022-11-28T08:27:46.008Z,19.61
2022-11-28T08:30:16.648Z,19.52
2022-11-28T08:32:46.849Z,19.58
2022-11-28T08:35:17.142Z,19.58
2022-11-28T08:37:46.840Z,19.58
2022-11-28T08:40:17.451Z,19.48
2022-11-28T08:42:47.681Z,19.45
2022-11-28T08:45:18.083Z,19.41
2022-11-28T08:47:48.406Z,19.47
2022-11-28T08:50:18.641Z,19.50
2022-11-28T08:52:49.008Z,19.50
2022-11-28T08:55:22.240Z,19.62
2022-11-28T08:57:55.454Z,19.78
2022-11-28T09:00:25.696Z,19.86
2022-11-28T09:02:56.042Z,19.97
2022-11-28T09:05:26.427Z,20.05
2022-11-28T09:07:59.940Z,20.08
2022-11-28T09:10:30.196Z,20.16
2022-11-28T09:13:00.408Z,20.17
2022-11-28T09:15:30.825Z,20.26
2022-11-28T09:18:01.258Z,20.37
2022-11-28T09:20:31.896Z,20.39
2022-11-28T09:23:02.464Z,20.44
2022-11-28T09:25:32.785Z,20.47
2022-11-28T09:28:02.614Z,20.60
2022-11-28T09:30:32.885Z,20.70
2022-11-28T09:33:03.212Z,20.64
2022-11-28T09:35:33.238Z,20.80
2022-11-28T09:38:03.451Z,20.87
2022-11-28T09:40:45.909Z,20.94
2022-11-28T09:43:19.104Z,20.99
2022-11-28T09:45:54.233Z,21.11
2022-11-28T09:48:27.700Z,21.16
2022-11-28T09:51:23.542Z,21.24
2022-11-28T09:54:10.991Z,21.29
2022-11-28T09:56:42.192Z,21.34
2022-11-28T09:59:27.225Z,21.38
2022-11-28T10:02:21.959Z,21.42
2022-11-28T10:04:58.334Z,21.46
2022-11-28T10:07:45.897Z,21.52
2022-11-28T10:10:34.208Z,21.56
2022-11-28T10:13:07.571Z,21.67
2022-11-28T10:15:49.679Z,21.80
2022-11-28T10:18:40.814Z,21.86
2022-11-28T10:21:28.529Z,21.97
2022-11-28T10:24:13.867Z,22.04
2022-11-28T10:26:50.464Z,22.17
2022-11-28T10:29:34.213Z,22.28
2022-11-28T10:32:06.320Z,22.33
2022-11-28T10:35:13.071Z,22.45
2022-11-28T10:37:44.635Z,22.52
2022-11-28T10:40:19.751Z,22.58
2022-11-28T10:43:02.793Z,22.75
2022-11-28T10:46:06.049Z,22.86
2022-11-28T10:48:40.442Z,22.85
2022-11-28T10:51:40.194Z,23.02
2022-11-28T10:54:39.174Z,23.23
2022-11-28T10:57:18.973Z,23.39
2022-11-28T11:00:00.603Z,23.67
2022-11-28T11:02:42.859Z,23.77
2022-11-28T11:05:27.183Z,23.71
2022-11-28T11:08:01.240Z,23.73
2022-11-28T11:10:58.571Z,23.85
2022-11-28T11:13:31.674Z,24.01
2022-11-28T11:16:11.139Z,23.98
2022-11-28T11:18:47.936Z,23.96
2022-11-28T11:21:28.260Z,23.93
2022-11-28T11:24:34.597Z,24.12
2022-11-28T11:27:18.786Z,24.08
2022-11-28T11:29:51.506Z,24.15
2022-11-28T11:32:28.095Z,24.07
2022-11-28T11:35:00.315Z,24.65
2022-11-28T11:37:39.080Z,24.63
2022-11-28T11:40:30.928Z,24.84
2022-11-28T11:43:02.701Z,24.96
2022-11-28T11:45:36.133Z,24.89
2022-11-28T11:48:06.686Z,24.75
2022-11-28T11:50:38.050Z,24.69
2022-11-28T11:53:12.508Z,24.76
2022-11-28T11:55:52.142Z,24.77
2022-11-28T11:58:30.464Z,25.45
2022-11-28T12:01:02.860Z,25.75
2022-11-28T12:03:49.672Z,26.09
2022-11-28T12:06:30.596Z,26.25
2022-11-28T12:09:10.526Z,26.02
2022-11-28T12:11:49.264Z,26.40
2022-11-28T12:14:40.742Z,26.18
2022-11-28T12:17:48.288Z,26.12
2022-11-28T12:20:27.998Z,26.51
2022-11-28T12:23:17.217Z,26.50
2022-11-28T12:25:58.124Z,26.16
2022-11-28T12:28:59.160Z,26.37
2022-11-28T12:31:32.419Z,26.22
2022-11-28T12:34:39.448Z,26.44
2022-11-28T12:37:42.086Z,26.46
2022-11-28T12:40:40.502Z,26.51
2022-11-28T12:43:47.940Z,26.28
2022-11-28T12:46:40.704Z,26.67
2022-11-28T12:49:32.653Z,26.83
2022-11-28T12:52:27.832Z,27.61
2022-11-28T12:55:26.787Z,27.78
2022-11-28T12:58:07.101Z,27.20
2022-11-28T13:00:54.462Z,27.55
2022-11-28T13:03:42.311Z,27.53
2022-11-28T13:06:18.542Z,27.76
2022-11-28T13:08:57.278Z,27.89
2022-11-28T13:11:48.534Z,27.56
2022-11-28T13:14:28.559Z,28.10
2022-11-28T13:17:20.756Z,27.56
2022-11-28T13:20:29.543Z,27.28
2022-11-28T13:23:20.916Z,27.81
2022-11-28T13:26:03.316Z,28.39
2022-11-28T13:28:46.490Z,28.90
2022-11-28T13:31:34.959Z,28.30
2022-11-28T13:34:05.231Z,28.64
2022-11-28T13:39:50.706Z,28.54
2022-11-28T13:43:17.413Z,28.79
2022-11-28T13:45:48.783Z,29.18
2022-11-28T13:49:06.033Z,29.39
2022-11-28T13:51:32.538Z,29.12
2022-11-28T13:54:21.576Z,28.90
2022-11-28T13:57:09.600Z,29.02
2022-11-28T13:59:40.694Z,28.79
2022-11-28T14:02:36.586Z,29.40
2022-11-28T14:05:20.030Z,29.18
2022-11-28T14:07:56.307Z,28.84
2022-11-28T14:10:35.007Z,29.01
2022-11-28T14:13:24.346Z,29.12
2022-11-28T14:16:03.376Z,29.02
2022-11-28T14:18:56.115Z,28.85
2022-11-28T14:21:29.888Z,28.74
2022-11-28T14:24:30.768Z,28.54
2022-11-28T14:27:04.082Z,28.44
2022-11-28T14:29:43.438Z,28.53
2022-11-28T14:32:38.243Z,28.33
2022-11-28T14:35:13.788Z,28.60
2022-11-28T14:37:55.600Z,28.50
2022-11-28T14:40:59.250Z,28.43
2022-11-28T14:43:30.522Z,28.28
2022-11-28T14:46:20.631Z,28.41
2022-11-28T14:49:00.424Z,28.65
2022-11-28T14:51:49.293Z,28.44
2022-11-28T14:54:31.767Z,28.39
2022-11-28T14:57:02.057Z,28.25
2022-11-28T14:59:41.256Z,28.10
2022-11-28T15:02:14.600Z,28.10
2022-11-28T15:05:41.293Z,28.79
2022-11-28T15:08:23.532Z,28.88
2022-11-28T15:10:53.913Z,29.27
2022-11-28T15:13:54.794Z,28.92
2022-11-28T15:16:25.572Z,28.64
2022-11-28T15:19:00.998Z,28.84
2022-11-28T15:21:31.420Z,29.26
2022-11-28T15:24:01.742Z,29.74
2022-11-28T15:26:32.871Z,29.76
2022-11-28T15:29:32.705Z,29.18
2022-11-28T15:32:03.795Z,29.80
2022-11-28T15:34:39.143Z,29.96
2022-11-28T15:37:19.296Z,30.05
2022-11-28T15:39:52.650Z,30.61
2022-11-28T15:42:28.717Z,30.72
2022-11-28T15:45:18.116Z,30.95
2022-11-28T15:47:50.465Z,31.27
2022-11-28T15:50:32.937Z,29.80
2022-11-28T15:53:18.088Z,29.94
2022-11-28T15:55:49.310Z,29.46
2022-11-28T15:58:26.628Z,30.46
2022-11-28T16:01:02.044Z,29.90
2022-11-28T16:03:37.461Z,30.46
2022-11-28T16:06:08.177Z,29.87
2022-11-28T16:08:49.342Z,29.64
2022-11-28T16:11:21.715Z,29.32
2022-11-28T16:13:53.612Z,29.20
2022-11-28T16:16:43.520Z,28.95
2022-11-28T16:19:30.569Z,29.20
2022-11-28T16:22:11.153Z,29.30
2022-11-28T16:24:59.278Z,29.36
2022-11-28T16:27:35.900Z,29.66
2022-11-28T16:30:32.738Z,29.40
2022-11-28T16:33:03.159Z,29.50
2022-11-28T16:35:41.740Z,29.36
2022-11-28T16:38:24.921Z,29.73
2022-11-28T16:41:05.454Z,29.19
2022-11-28T16:43:41.428Z,29.72
2022-11-28T16:46:24.906Z,30.05
2022-11-28T16:48:59.484Z,29.12
2022-11-28T16:51:33.844Z,29.18
2022-11-28T16:54:29.198Z,29.74
2022-11-28T16:57:11.622Z,29.22
2022-11-28T16:59:42.637Z,29.08
2022-11-28T17:02:24.801Z,29.49
2022-11-28T17:04:55.772Z,29.90
2022-11-28T17:07:26.617Z,30.01
2022-11-28T17:09:56.943Z,29.78
2022-11-28T17:12:31.310Z,30.05
2022-11-28T17:15:01.833Z,29.73
2022-11-28T17:17:32.587Z,29.94
2022-11-28T17:20:02.846Z,29.47
2022-11-28T17:22:47.290Z,29.27
2022-11-28T17:25:22.428Z,28.96
2022-11-28T17:27:54.227Z,28.21
2022-11-28T17:30:24.617Z,28.30
2022-11-28T17:32:55.020Z,28.82
2022-11-28T17:35:26.925Z,29.43
2022-11-28T17:37:57.166Z,29.03
2022-11-28T17:40:37.869Z,28.39
2022-11-28T17:43:09.321Z,28.27
2022-11-28T17:45:40.767Z,28.78
2022-11-28T17:48:14.867Z,28.84
2022-11-28T17:50:47.431Z,28.67
2022-11-28T17:53:20.335Z,28.85
2022-11-28T17:56:00.039Z,28.92
2022-11-28T17:58:30.846Z,28.57
2022-11-28T18:01:01.235Z,28.41
2022-11-28T18:03:31.685Z,28.33
2022-11-28T18:06:01.948Z,28.07
2022-11-28T18:08:32.558Z,28.13
2022-11-28T18:11:11.305Z,28.16
2022-11-28T18:13:43.729Z,28.30
2022-11-28T18:16:15.257Z,28.33
2022-11-28T18:18:45.754Z,28.13
2022-11-28T18:21:17.005Z,28.17
2022-11-28T18:23:50.982Z,28.20
2022-11-28T18:26:25.290Z,28.10
2022-11-28T18:28:56.063Z,28.04
2022-11-28T18:31:28.535Z,28.16
2022-11-28T18:34:03.481Z,28.06
2022-11-28T18:36:39.594Z,28.09
2022-11-28T18:39:15.417Z,27.81
2022-11-28T18:41:47.303Z,28.20
2022-11-28T18:44:18.261Z,28.45
2022-11-28T18:46:48.536Z,28.30
2022-11-28T18:49:20.487Z,28.40
2022-11-28T18:51:50.838Z,28.31
2022-11-28T18:54:22.282Z,28.28
2022-11-28T18:56:52.912Z,28.24
2022-11-28T18:59:23.263Z,28.20
2022-11-28T19:01:53.708Z,28.13
2022-11-28T19:04:24.195Z,28.36
2022-11-28T19:06:55.013Z,28.36
2022-11-28T19:09:25.394Z,28.07
2022-11-28T19:11:56.655Z,27.96
2022-11-28T19:14:26.877Z,27.94
2022-11-28T19:16:58.150Z,28.04
2022-11-28T19:19:28.545Z,28.00
2022-11-28T19:21:59.070Z,28.21
2022-11-28T19:24:29.381Z,28.18
2022-11-28T19:27:00.122Z,28.07
2022-11-28T19:29:30.347Z,27.99
2022-11-28T19:32:01.296Z,28.06
2022-11-28T19:34:31.624Z,27.97
2022-11-28T19:37:02.123Z,27.49
2022-11-28T19:39:33.841Z,27.53
2022-11-28T19:42:04.936Z,27.42
2022-11-28T19:44:35.649Z,27.41
2022-11-28T19:47:08.085Z,27.37
2022-11-28T19:49:38.357Z,27.37
2022-11-28T19:52:09.143Z,27.56
2022-11-28T19:54:39.406Z,27.69
2022-11-28T19:57:12.502Z,27.53
2022-11-28T19:59:43.692Z,27.45
2022-11-28T20:02:14.129Z,27.27
2022-11-28T20:04:45.629Z,27.24
2022-11-28T20:07:16.013Z,27.38
2022-11-28T20:09:48.218Z,27.43
2022-11-28T20:12:18.698Z,27.12
2022-11-28T20:14:49.014Z,27.27
2022-11-28T20:17:19.323Z,27.12
2022-11-28T20:19:49.853Z,27.11
2022-11-28T20:22:23.056Z,27.08
2022-11-28T20:24:53.681Z,26.98
2022-11-28T20:27:24.182Z,26.91
2022-11-28T20:29:55.523Z,26.86
2022-11-28T20:32:25.741Z,26.87
2022-11-28T20:34:55.261Z,26.92
2022-11-28T20:37:25.614Z,26.81
2022-11-28T20:39:55.946Z,26.59
2022-11-28T20:42:26.001Z,26.54
2022-11-28T20:44:56.432Z,26.51
2022-11-28T20:47:26.589Z,26.44
2022-11-28T20:49:56.820Z,26.39
2022-11-28T20:52:27.100Z,26.25
2022-11-28T20:54:57.362Z,26.39
2022-11-28T20:57:27.841Z,26.30
2022-11-28T20:59:58.765Z,26.12
2022-11-28T21:02:28.859Z,26.08
2022-11-28T21:04:59.193Z,26.09
2022-11-28T21:07:29.344Z,26.15
2022-11-28T21:10:01.353Z,26.20
2022-11-28T21:12:31.622Z,26.16
2022-11-28T21:15:03.325Z,25.93
2022-11-28T21:17:34.092Z,25.85
2022-11-28T21:20:04.546Z,25.68
2022-11-28T21:22:34.763Z,25.64
2022-11-28T21:25:04.277Z,25.50
2022-11-28T21:27:36.394Z,25.47
2022-11-28T21:30:07.587Z,25.34
2022-11-28T21:32:37.837Z,25.17
2022-11-28T21:35:08.410Z,25.14
2022-11-28T21:37:38.675Z,25.02
2022-11-28T21:40:09.539Z,24.96
2022-11-28T21:42:39.827Z,24.80
2022-11-28T21:45:11.169Z,25.10
2022-11-28T21:47:41.444Z,24.76
2022-11-28T21:50:12.056Z,24.55
2022-11-28T21:52:42.761Z,24.48
2022-11-28T21:55:13.456Z,24.28
2022-11-28T21:57:44.356Z,24.11
2022-11-28T22:00:38.284Z,24.00
2022-11-28T22:03:12.493Z,23.94
2022-11-28T22:05:44.573Z,23.90
2022-11-28T22:08:15.215Z,23.78
2022-11-28T22:10:45.509Z,23.70
2022-11-28T22:13:15.872Z,23.74
2022-11-28T22:15:46.176Z,23.67
2022-11-28T22:18:16.732Z,23.60
2022-11-28T22:20:51.611Z,23.51
2022-11-28T22:23:22.783Z,23.46
2022-11-28T22:25:53.858Z,23.43
2022-11-28T22:28:23.976Z,23.43
2022-11-28T22:30:53.746Z,23.33
2022-11-28T22:33:23.790Z,23.34
2022-11-28T22:35:53.333Z,23.23
2022-11-28T22:38:23.390Z,23.23
2022-11-28T22:40:53.694Z,23.15
2022-11-28T22:43:24.303Z,23.15
2022-11-28T22:46:00.635Z,23.15
2022-11-28T22:48:32.175Z,23.12
2022-11-28T22:51:07.294Z,23.15
2022-11-28T22:53:37.664Z,23.03
2022-11-28T22:56:16.844Z,22.96
2022-11-28T22:58:47.524Z,22.98
2022-11-28T23:01:23.863Z,22.92
2022-11-28T23:03:54.048Z,22.96
2022-11-28T23:06:31.129Z,22.94
2022-11-28T23:09:03.445Z,22.94
2022-11-28T23:11:36.126Z,22.91
2022-11-28T23:14:07.899Z,22.91
2022-11-28T23:16:41.295Z,22.85
2022-11-28T23:19:15.430Z,22.86
2022-11-28T23:21:48.631Z,22.82
2022-11-28T23:24:21.752Z,22.79
2022-11-28T23:26:54.021Z,22.75
2022-11-28T23:29:24.368Z,22.68
2022-11-28T23:31:54.930Z,22.64
2022-11-28T23:34:27.567Z,22.55
2022-11-28T23:36:58.029Z,22.54
2022-11-28T23:39:29.576Z,22.49
2022-11-28T23:42:06.709Z,22.40
2022-11-28T23:44:36.978Z,22.38
2022-11-28T23:47:07.467Z,22.38
2022-11-28T23:49:37.637Z,22.33
2022-11-28T23:52:07.430Z,22.31
2022-11-28T23:54:37.335Z,22.28
2022-11-28T23:57:07.001Z,22.25
2022-11-28T23:59:37.097Z,22.22
